sensor_id;sensor_type;location;lat;lon;timestamp;pressure;altitude;pressure_sealevel;temperature;humidity
21109;BME280;10712;52.944;9.098;2023-05-11T00:02:13;101315.75;;;20.43;57.15
21109;BME280;10712;52.944;9.098;2023-05-11T00:04:39;101312.63;;;20.38;56.98
21109;BME280;10712;52.944;9.098;2023-05-11T00:07:05;101314.34;;;20.39;56.86
21109;BME280;10712;52.944;9.098;2023-05-11T00:09:31;101315.16;;;20.40;57.02
21109;BME280;10712;52.944;9.098;2023-05-11T00:11:57;101315.34;;;20.38;57.01
21109;BME280;10712;52.944;9.098;2023-05-11T00:14:23;101310.91;;;20.37;57.09
21109;BME280;10712;52.944;9.098;2023-05-11T00:16:49;101314.34;;;20.39;57.03
21109;BME280;10712;52.944;9.098;2023-05-11T00:19:15;101317.88;;;20.40;57.08
21109;BME280;10712;52.944;9.098;2023-05-11T00:21:40;101310.63;;;20.40;56.94
21109;BME280;10712;52.944;9.098;2023-05-11T00:24:07;101317.47;;;20.44;56.86
21109;BME280;10712;52.944;9.098;2023-05-11T00:26:33;101311.06;;;20.46;57.10
21109;BME280;10712;52.944;9.098;2023-05-11T00:28:58;101304.66;;;20.47;57.21
21109;BME280;10712;52.944;9.098;2023-05-11T00:31:24;101312.78;;;20.47;57.05
21109;BME280;10712;52.944;9.098;2023-05-11T00:33:51;101313.47;;;20.49;57.14
21109;BME280;10712;52.944;9.098;2023-05-11T00:36:19;101319.63;;;20.51;57.25
21109;BME280;10712;52.944;9.098;2023-05-11T00:38:45;101314.22;;;20.51;57.36
21109;BME280;10712;52.944;9.098;2023-05-11T00:41:11;101315.50;;;20.47;57.22
21109;BME280;10712;52.944;9.098;2023-05-11T00:43:37;101311.34;;;20.42;57.15
21109;BME280;10712;52.944;9.098;2023-05-11T00:46:03;101305.50;;;20.37;56.96
21109;BME280;10712;52.944;9.098;2023-05-11T00:48:29;101300.09;;;20.37;57.27
21109;BME280;10712;52.944;9.098;2023-05-11T00:50:58;101301.06;;;20.36;57.20
21109;BME280;10712;52.944;9.098;2023-05-11T00:53:25;101307.22;;;20.38;57.15
21109;BME280;10712;52.944;9.098;2023-05-11T00:55:50;101302.38;;;20.42;57.15
21109;BME280;10712;52.944;9.098;2023-05-11T00:58:17;101309.34;;;20.44;57.27
21109;BME280;10712;52.944;9.098;2023-05-11T01:00:43;101309.63;;;20.41;57.07
21109;BME280;10712;52.944;9.098;2023-05-11T01:03:09;101306.22;;;20.39;57.14
21109;BME280;10712;52.944;9.098;2023-05-11T01:05:52;101305.75;;;20.34;57.29
21109;BME280;10712;52.944;9.098;2023-05-11T01:14:05;101307.22;;;20.38;57.21
21109;BME280;10712;52.944;9.098;2023-05-11T01:16:39;101305.94;;;20.42;57.32
21109;BME280;10712;52.944;9.098;2023-05-11T01:31:16;101299.16;;;20.27;57.62
21109;BME280;10712;52.944;9.098;2023-05-11T01:36:19;101312.00;;;20.25;57.81
21109;BME280;10712;52.944;9.098;2023-05-11T01:38:52;101317.41;;;20.25;57.53
21109;BME280;10712;52.944;9.098;2023-05-11T01:41:20;101306.56;;;20.25;57.54
21109;BME280;10712;52.944;9.098;2023-05-11T01:43:54;101315.69;;;20.24;57.95
21109;BME280;10712;52.944;9.098;2023-05-11T01:46:25;101326.78;;;20.21;57.98
21109;BME280;10712;52.944;9.098;2023-05-11T01:48:56;101330.19;;;20.23;57.72
21109;BME280;10712;52.944;9.098;2023-05-11T01:51:30;101332.78;;;20.25;58.01
21109;BME280;10712;52.944;9.098;2023-05-11T01:53:59;101331.91;;;20.24;58.08
21109;BME280;10712;52.944;9.098;2023-05-11T01:56:27;101329.91;;;20.26;57.85
21109;BME280;10712;52.944;9.098;2023-05-11T01:58:56;101344.47;;;20.25;58.00
21109;BME280;10712;52.944;9.098;2023-05-11T02:01:23;101342.16;;;20.21;57.83
21109;BME280;10712;52.944;9.098;2023-05-11T02:03:53;101336.44;;;20.14;57.53
21109;BME280;10712;52.944;9.098;2023-05-11T02:06:22;101340.97;;;20.14;57.83
21109;BME280;10712;52.944;9.098;2023-05-11T02:08:49;101341.13;;;20.12;57.57
21109;BME280;10712;52.944;9.098;2023-05-11T02:11:17;101345.09;;;20.08;57.58
21109;BME280;10712;52.944;9.098;2023-05-11T02:13:46;101347.22;;;20.04;57.63
21109;BME280;10712;52.944;9.098;2023-05-11T02:16:15;101345.38;;;20.05;57.75
21109;BME280;10712;52.944;9.098;2023-05-11T02:18:44;101348.91;;;20.05;57.62
21109;BME280;10712;52.944;9.098;2023-05-11T02:21:14;101352.03;;;20.01;57.44
21109;BME280;10712;52.944;9.098;2023-05-11T02:23:42;101355.16;;;19.96;57.50
21109;BME280;10712;52.944;9.098;2023-05-11T02:26:11;101351.16;;;19.91;57.37
21109;BME280;10712;52.944;9.098;2023-05-11T02:28:37;101348.94;;;19.85;57.07
21109;BME280;10712;52.944;9.098;2023-05-11T02:31:11;101355.50;;;19.82;57.14
21109;BME280;10712;52.944;9.098;2023-05-11T02:33:46;101356.75;;;19.78;57.07
21109;BME280;10712;52.944;9.098;2023-05-11T02:36:19;101368.41;;;19.79;57.10
21109;BME280;10712;52.944;9.098;2023-05-11T02:38:49;101359.00;;;19.73;56.96
21109;BME280;10712;52.944;9.098;2023-05-11T02:41:25;101360.41;;;19.67;57.18
21109;BME280;10712;52.944;9.098;2023-05-11T02:43:55;101353.81;;;19.60;57.10
21109;BME280;10712;52.944;9.098;2023-05-11T02:46:31;101348.53;;;19.59;57.23
21109;BME280;10712;52.944;9.098;2023-05-11T02:49:01;101350.66;;;19.55;57.55
21109;BME280;10712;52.944;9.098;2023-05-11T02:51:35;101354.34;;;19.54;57.56
21109;BME280;10712;52.944;9.098;2023-05-11T02:54:05;101361.72;;;19.52;57.86
21109;BME280;10712;52.944;9.098;2023-05-11T02:56:35;101363.69;;;19.50;57.81
21109;BME280;10712;52.944;9.098;2023-05-11T02:59:02;101358.03;;;19.53;58.08
21109;BME280;10712;52.944;9.098;2023-05-11T03:01:29;101364.28;;;19.54;58.07
21109;BME280;10712;52.944;9.098;2023-05-11T03:03:55;101364.88;;;19.57;58.30
21109;BME280;10712;52.944;9.098;2023-05-11T03:06:24;101369.09;;;19.50;58.61
21109;BME280;10712;52.944;9.098;2023-05-11T03:08:50;101363.19;;;19.56;58.56
21109;BME280;10712;52.944;9.098;2023-05-11T03:11:18;101359.00;;;19.52;58.98
21109;BME280;10712;52.944;9.098;2023-05-11T03:13:47;101358.03;;;19.53;59.20
21109;BME280;10712;52.944;9.098;2023-05-11T03:16:16;101358.75;;;19.55;58.94
21109;BME280;10712;52.944;9.098;2023-05-11T03:18:43;101361.19;;;19.58;59.30
21109;BME280;10712;52.944;9.098;2023-05-11T03:21:10;101358.22;;;19.61;59.23
21109;BME280;10712;52.944;9.098;2023-05-11T03:23:37;101361.50;;;19.65;59.38
21109;BME280;10712;52.944;9.098;2023-05-11T03:26:06;101355.53;;;19.61;59.35
21109;BME280;10712;52.944;9.098;2023-05-11T03:28:35;101359.78;;;19.64;59.33
21109;BME280;10712;52.944;9.098;2023-05-11T03:31:05;101355.72;;;19.70;59.44
21109;BME280;10712;52.944;9.098;2023-05-11T03:33:32;101361.81;;;19.72;59.24
21109;BME280;10712;52.944;9.098;2023-05-11T03:36:01;101356.41;;;19.72;59.25
21109;BME280;10712;52.944;9.098;2023-05-11T03:38:30;101360.84;;;19.73;59.59
21109;BME280;10712;52.944;9.098;2023-05-11T03:40:58;101358.44;;;19.70;59.71
21109;BME280;10712;52.944;9.098;2023-05-11T03:43:29;101362.13;;;19.69;59.56
21109;BME280;10712;52.944;9.098;2023-05-11T03:45:56;101362.97;;;19.69;59.50
21109;BME280;10712;52.944;9.098;2023-05-11T03:48:24;101360.84;;;19.73;59.79
21109;BME280;10712;52.944;9.098;2023-05-11T03:50:51;101371.47;;;19.64;59.93
21109;BME280;10712;52.944;9.098;2023-05-11T03:53:18;101357.50;;;19.59;60.15
21109;BME280;10712;52.944;9.098;2023-05-11T03:55:44;101356.91;;;19.56;60.16
21109;BME280;10712;52.944;9.098;2023-05-11T03:58:10;101359.63;;;19.56;60.14
21109;BME280;10712;52.944;9.098;2023-05-11T04:00:38;101368.59;;;19.56;60.14
21109;BME280;10712;52.944;9.098;2023-05-11T04:03:04;101363.75;;;19.60;60.01
21109;BME280;10712;52.944;9.098;2023-05-11T04:05:33;101367.44;;;19.59;60.33
21109;BME280;10712;52.944;9.098;2023-05-11T04:08:03;101367.31;;;19.60;60.35
21109;BME280;10712;52.944;9.098;2023-05-11T04:10:29;101371.00;;;19.59;60.47
21109;BME280;10712;52.944;9.098;2023-05-11T04:12:56;101373.38;;;19.53;60.22
21109;BME280;10712;52.944;9.098;2023-05-11T04:15:21;101371.09;;;19.48;60.27
21109;BME280;10712;52.944;9.098;2023-05-11T04:17:47;101358.03;;;19.53;60.37
21109;BME280;10712;52.944;9.098;2023-05-11T04:20:13;101367.84;;;19.54;60.38
21109;BME280;10712;52.944;9.098;2023-05-11T04:22:39;101368.59;;;19.56;60.34
21109;BME280;10712;52.944;9.098;2023-05-11T04:25:05;101370.28;;;19.57;60.41
21109;BME280;10712;52.944;9.098;2023-05-11T04:27:34;101370.69;;;19.53;60.57
21109;BME280;10712;52.944;9.098;2023-05-11T04:30:03;101369.09;;;19.50;60.37
21109;BME280;10712;52.944;9.098;2023-05-11T04:32:29;101372.66;;;19.51;60.32
21109;BME280;10712;52.944;9.098;2023-05-11T04:34:56;101378.06;;;19.51;60.56
21109;BME280;10712;52.944;9.098;2023-05-11T04:37:23;101376.22;;;19.51;60.49
21109;BME280;10712;52.944;9.098;2023-05-11T04:39:50;101381.38;;;19.54;60.62
21109;BME280;10712;52.944;9.098;2023-05-11T04:42:16;101378.38;;;19.57;60.30
21109;BME280;10712;52.944;9.098;2023-05-11T04:44:46;101376.22;;;19.51;60.60
21109;BME280;10712;52.944;9.098;2023-05-11T04:47:13;101376.22;;;19.51;60.33
21109;BME280;10712;52.944;9.098;2023-05-11T04:49:38;101378.34;;;19.48;60.41
21109;BME280;10712;52.944;9.098;2023-05-11T04:52:05;101374.78;;;19.47;60.35
21109;BME280;10712;52.944;9.098;2023-05-11T04:54:31;101383.88;;;19.46;60.74
21109;BME280;10712;52.944;9.098;2023-05-11T04:56:57;101376.22;;;19.51;60.41
21109;BME280;10712;52.944;9.098;2023-05-11T04:59:23;101370.81;;;19.51;60.91
21109;BME280;10712;52.944;9.098;2023-05-11T05:01:49;101380.53;;;19.43;60.96
21109;BME280;10712;52.944;9.098;2023-05-11T05:04:15;101374.88;;;19.46;60.90
21109;BME280;10712;52.944;9.098;2023-05-11T05:06:41;101378.53;;;19.45;60.84
21109;BME280;10712;52.944;9.098;2023-05-11T05:09:06;101384.59;;;19.48;60.85
21109;BME280;10712;52.944;9.098;2023-05-11T05:11:33;101378.91;;;19.51;60.70
21109;BME280;10712;52.944;9.098;2023-05-11T05:13:58;101386.78;;;19.54;60.63
21109;BME280;10712;52.944;9.098;2023-05-11T05:16:24;101395.00;;;19.53;60.74
21109;BME280;10712;52.944;9.098;2023-05-11T05:18:50;101391.31;;;19.54;60.73
21109;BME280;10712;52.944;9.098;2023-05-11T05:21:16;101389.72;;;19.51;60.72
21109;BME280;10712;52.944;9.098;2023-05-11T05:23:43;101389.88;;;19.50;60.42
21109;BME280;10712;52.944;9.098;2023-05-11T05:26:10;101392.91;;;19.45;60.56
21109;BME280;10712;52.944;9.098;2023-05-11T05:28:37;101397.13;;;19.49;60.79
21109;BME280;10712;52.944;9.098;2023-05-11T05:31:04;101396.00;;;19.52;60.46
21109;BME280;10712;52.944;9.098;2023-05-11T05:33:29;101399.31;;;19.55;60.61
21109;BME280;10712;52.944;9.098;2023-05-11T05:35:55;101406.88;;;19.61;60.61
21109;BME280;10712;52.944;9.098;2023-05-11T05:38:21;101403.91;;;19.64;60.49
21109;BME280;10712;52.944;9.098;2023-05-11T05:40:47;101408.72;;;19.61;60.40
21109;BME280;10712;52.944;9.098;2023-05-11T05:43:14;101419.22;;;19.54;60.68
21109;BME280;10712;52.944;9.098;2023-05-11T05:45:41;101409.84;;;19.58;60.45
21109;BME280;10712;52.944;9.098;2023-05-11T05:48:07;101415.38;;;19.57;60.46
21109;BME280;10712;52.944;9.098;2023-05-11T05:50:34;101416.97;;;19.59;60.75
21109;BME280;10712;52.944;9.098;2023-05-11T05:53:00;101415.75;;;19.52;60.49
21109;BME280;10712;52.944;9.098;2023-05-11T05:55:28;101426.91;;;19.59;60.36
21109;BME280;10712;52.944;9.098;2023-05-11T05:57:55;101428.97;;;19.66;60.31
21109;BME280;10712;52.944;9.098;2023-05-11T06:00:21;101424.00;;;19.72;60.18
21109;BME280;10712;52.944;9.098;2023-05-11T06:02:55;101431.41;;;19.70;60.32
21109;BME280;10712;52.944;9.098;2023-05-11T06:05:24;101426.72;;;19.72;60.03
21109;BME280;10712;52.944;9.098;2023-05-11T06:07:50;101436.75;;;19.81;60.18
21109;BME280;10712;52.944;9.098;2023-05-11T06:10:17;101439.91;;;19.86;60.24
21109;BME280;10712;52.944;9.098;2023-05-11T06:12:45;101439.66;;;19.89;60.35
21109;BME280;10712;52.944;9.098;2023-05-11T06:15:11;101437.69;;;19.91;60.17
21109;BME280;10712;52.944;9.098;2023-05-11T06:17:40;101446.66;;;19.91;60.03
21109;BME280;10712;52.944;9.098;2023-05-11T06:20:07;101443.75;;;19.83;60.01
21109;BME280;10712;52.944;9.098;2023-05-11T06:22:34;101443.44;;;19.77;60.10
21109;BME280;10712;52.944;9.098;2023-05-11T06:25:00;101442.94;;;19.72;60.39
21109;BME280;10712;52.944;9.098;2023-05-11T06:27:27;101438.38;;;19.72;60.47
21109;BME280;10712;52.944;9.098;2023-05-11T06:29:56;101449.41;;;19.80;60.21
21109;BME280;10712;52.944;9.098;2023-05-11T06:32:24;101431.34;;;19.81;59.99
21109;BME280;10712;52.944;9.098;2023-05-11T06:34:50;101438.47;;;19.82;60.18
21109;BME280;10712;52.944;9.098;2023-05-11T06:37:15;101436.75;;;19.81;59.99
21109;BME280;10712;52.944;9.098;2023-05-11T06:39:47;101437.16;;;19.76;60.22
21109;BME280;10712;52.944;9.098;2023-05-11T06:42:13;101436.50;;;19.84;60.15
21109;BME280;10712;52.944;9.098;2023-05-11T06:44:39;101437.16;;;19.97;60.16
21109;BME280;10712;52.944;9.098;2023-05-11T06:47:07;101429.22;;;20.05;59.86
21109;BME280;10712;52.944;9.098;2023-05-11T06:49:33;101436.41;;;20.16;59.76
21109;BME280;10712;52.944;9.098;2023-05-11T06:51:59;101434.09;;;20.11;59.81
21109;BME280;10712;52.944;9.098;2023-05-11T06:54:25;101445.81;;;20.21;60.09
21109;BME280;10712;52.944;9.098;2023-05-11T06:56:51;101436.47;;;20.25;59.79
21109;BME280;10712;52.944;9.098;2023-05-11T06:59:17;101434.19;;;20.30;59.99
21109;BME280;10712;52.944;9.098;2023-05-11T07:01:42;101442.84;;;20.24;59.94
21109;BME280;10712;52.944;9.098;2023-05-11T07:04:08;101439.63;;;20.30;59.84
21109;BME280;10712;52.944;9.098;2023-05-11T07:06:34;101439.88;;;20.27;59.65
21109;BME280;10712;52.944;9.098;2023-05-11T07:09:00;101431.72;;;20.38;59.79
21109;BME280;10712;52.944;9.098;2023-05-11T07:11:29;101437.44;;;20.45;59.46
21109;BME280;10712;52.944;9.098;2023-05-11T07:13:55;101440.16;;;20.24;59.50
21109;BME280;10712;52.944;9.098;2023-05-11T07:16:21;101442.13;;;20.22;59.20
21109;BME280;10712;52.944;9.098;2023-05-11T07:18:48;101439.47;;;20.32;59.00
21109;BME280;10712;52.944;9.098;2023-05-11T07:21:14;101444.81;;;20.43;59.13
21109;BME280;10712;52.944;9.098;2023-05-11T07:23:40;101446.66;;;20.42;59.17
21109;BME280;10712;52.944;9.098;2023-05-11T07:26:06;101440.28;;;20.43;58.77
21109;BME280;10712;52.944;9.098;2023-05-11T07:28:36;101446.13;;;20.49;58.90
21109;BME280;10712;52.944;9.098;2023-05-11T07:31:03;101442.16;;;20.53;58.80
21109;BME280;10712;52.944;9.098;2023-05-11T07:33:29;101447.44;;;20.54;58.95
21109;BME280;10712;52.944;9.098;2023-05-11T07:35:55;101441.50;;;20.60;59.04
21109;BME280;10712;52.944;9.098;2023-05-11T07:38:20;101450.72;;;20.58;58.89
21109;BME280;10712;52.944;9.098;2023-05-11T07:40:46;101451.53;;;20.49;58.84
21109;BME280;10712;52.944;9.098;2023-05-11T07:43:12;101452.16;;;20.62;58.78
21109;BME280;10712;52.944;9.098;2023-05-11T07:45:38;101441.50;;;20.70;58.75
21109;BME280;10712;52.944;9.098;2023-05-11T07:48:04;101450.63;;;20.69;58.86
21109;BME280;10712;52.944;9.098;2023-05-11T07:50:30;101452.34;;;20.70;58.42
21109;BME280;10712;52.944;9.098;2023-05-11T07:52:57;101447.81;;;20.80;58.25
21109;BME280;10712;52.944;9.098;2023-05-11T07:55:23;101446.09;;;20.79;57.98
21109;BME280;10712;52.944;9.098;2023-05-11T07:57:54;101457.19;;;20.76;58.07
21109;BME280;10712;52.944;9.098;2023-05-11T08:00:21;101451.94;;;20.74;58.08
21109;BME280;10712;52.944;9.098;2023-05-11T08:02:47;101452.94;;;20.83;57.56
21109;BME280;10712;52.944;9.098;2023-05-11T08:05:12;101459.53;;;20.90;57.95
21109;BME280;10712;52.944;9.098;2023-05-11T08:07:38;101458.41;;;21.02;57.96
21109;BME280;10712;52.944;9.098;2023-05-11T08:10:05;101455.84;;;21.10;57.76
21109;BME280;10712;52.944;9.098;2023-05-11T08:12:31;101463.19;;;21.19;57.92
21109;BME280;10712;52.944;9.098;2023-05-11T08:14:57;101456.91;;;21.19;57.87
21109;BME280;10712;52.944;9.098;2023-05-11T08:17:22;101461.00;;;21.13;57.57
21109;BME280;10712;52.944;9.098;2023-05-11T08:19:48;101461.28;;;21.10;57.59
21109;BME280;10712;52.944;9.098;2023-05-11T08:22:15;101460.03;;;21.14;57.59
21109;BME280;10712;52.944;9.098;2023-05-11T08:24:41;101463.28;;;21.08;57.40
21109;BME280;10712;52.944;9.098;2023-05-11T08:27:07;101459.56;;;21.09;57.13
21109;BME280;10712;52.944;9.098;2023-05-11T08:29:33;101472.13;;;21.01;57.34
21109;BME280;10712;52.944;9.098;2023-05-11T08:31:58;101455.28;;;21.07;57.36
21109;BME280;10712;52.944;9.098;2023-05-11T08:34:25;101454.19;;;21.19;57.20
21109;BME280;10712;52.944;9.098;2023-05-11T08:36:50;101457.50;;;21.23;57.43
21109;BME280;10712;52.944;9.098;2023-05-11T08:39:17;101453.91;;;21.32;57.90
21109;BME280;10712;52.944;9.098;2023-05-11T08:41:45;101453.81;;;21.43;57.72
21109;BME280;10712;52.944;9.098;2023-05-11T08:44:13;101463.34;;;21.47;57.86
21109;BME280;10712;52.944;9.098;2023-05-11T08:46:44;101459.22;;;21.43;58.02
21109;BME280;10712;52.944;9.098;2023-05-11T08:49:11;101466.06;;;21.47;57.58
21109;BME280;10712;52.944;9.098;2023-05-11T08:51:39;101463.19;;;21.58;57.68
21109;BME280;10712;52.944;9.098;2023-05-11T08:54:05;101454.78;;;21.61;57.17
21109;BME280;10712;52.944;9.098;2023-05-11T08:56:35;101466.19;;;21.45;56.97
21109;BME280;10712;52.944;9.098;2023-05-11T08:59:04;101463.34;;;21.47;56.89
21109;BME280;10712;52.944;9.098;2023-05-11T09:01:34;101462.78;;;21.53;56.85
21109;BME280;10712;52.944;9.098;2023-05-11T09:04:01;101459.34;;;21.51;57.07
21109;BME280;10712;52.944;9.098;2023-05-11T09:06:29;101462.50;;;21.56;57.07
21109;BME280;10712;52.944;9.098;2023-05-11T09:08:57;101462.22;;;21.69;57.13
21109;BME280;10712;52.944;9.098;2023-05-11T09:11:23;101464.75;;;21.80;56.94
21109;BME280;10712;52.944;9.098;2023-05-11T09:13:50;101459.47;;;21.78;57.08
21109;BME280;10712;52.944;9.098;2023-05-11T09:16:16;101458.75;;;21.86;56.92
21109;BME280;10712;52.944;9.098;2023-05-11T09:18:52;101463.31;;;21.95;57.21
21109;BME280;10712;52.944;9.098;2023-05-11T09:21:19;101468.66;;;21.96;57.25
21109;BME280;10712;52.944;9.098;2023-05-11T09:23:48;101459.91;;;22.03;56.90
21109;BME280;10712;52.944;9.098;2023-05-11T09:26:21;101462.75;;;22.11;56.82
21109;BME280;10712;52.944;9.098;2023-05-11T09:28:56;101472.63;;;22.12;57.17
21109;BME280;10712;52.944;9.098;2023-05-11T09:31:42;101469.31;;;22.18;56.86
21109;BME280;10712;52.944;9.098;2023-05-11T09:34:21;101465.34;;;22.03;57.05
21109;BME280;10712;52.944;9.098;2023-05-11T09:36:50;101461.31;;;22.07;56.67
21109;BME280;10712;52.944;9.098;2023-05-11T09:39:17;101458.78;;;22.05;56.53
21109;BME280;10712;52.944;9.098;2023-05-11T09:41:46;101459.06;;;21.83;56.56
21109;BME280;10712;52.944;9.098;2023-05-11T09:44:14;101463.06;;;21.98;56.35
21109;BME280;10712;52.944;9.098;2023-05-11T09:46:43;101460.19;;;21.99;57.34
21109;BME280;10712;52.944;9.098;2023-05-11T09:49:10;101460.38;;;21.98;56.82
21109;BME280;10712;52.944;9.098;2023-05-11T09:51:40;101471.34;;;21.96;56.72
21109;BME280;10712;52.944;9.098;2023-05-11T09:54:19;101464.47;;;21.73;56.85
21109;BME280;10712;52.944;9.098;2023-05-11T09:56:49;101468.06;;;21.83;56.15
21109;BME280;10712;52.944;9.098;2023-05-11T09:59:35;101464.63;;;21.91;56.76
21109;BME280;10712;52.944;9.098;2023-05-11T10:02:28;101470.19;;;21.89;56.25
21109;BME280;10712;52.944;9.098;2023-05-11T10:04:59;101461.06;;;21.90;56.28
21109;BME280;10712;52.944;9.098;2023-05-11T10:07:35;101458.94;;;21.84;56.83
21109;BME280;10712;52.944;9.098;2023-05-11T10:10:06;101467.34;;;22.00;56.42
21109;BME280;10712;52.944;9.098;2023-05-11T10:12:34;101463.03;;;22.08;57.22
21109;BME280;10712;52.944;9.098;2023-05-11T10:15:09;101456.19;;;21.94;56.92
21109;BME280;10712;52.944;9.098;2023-05-11T10:17:36;101463.63;;;22.02;56.82
21109;BME280;10712;52.944;9.098;2023-05-11T10:20:04;101466.34;;;22.11;57.57
21109;BME280;10712;52.944;9.098;2023-05-11T10:22:31;101456.75;;;22.17;57.83
21109;BME280;10712;52.944;9.098;2023-05-11T10:24:58;101461.38;;;22.34;57.53
21109;BME280;10712;52.944;9.098;2023-05-11T10:27:25;101457.56;;;22.27;57.27
21109;BME280;10712;52.944;9.098;2023-05-11T10:29:51;101449.53;;;22.35;57.07
21109;BME280;10712;52.944;9.098;2023-05-11T10:32:18;101453.25;;;22.34;57.41
21109;BME280;10712;52.944;9.098;2023-05-11T10:34:46;101456.81;;;22.34;57.11
21109;BME280;10712;52.944;9.098;2023-05-11T10:37:14;101448.66;;;22.44;57.09
21109;BME280;10712;52.944;9.098;2023-05-11T10:39:41;101441.56;;;22.24;56.62
21109;BME280;10712;52.944;9.098;2023-05-11T10:55:05;101445.41;;;22.31;56.79
21109;BME280;10712;52.944;9.098;2023-05-11T10:58:04;101444.84;;;22.27;57.01
21109;BME280;10712;52.944;9.098;2023-05-11T11:03:34;101451.97;;;22.38;58.19
21109;BME280;10712;52.944;9.098;2023-05-11T11:06:01;101455.47;;;22.48;58.32
21109;BME280;10712;52.944;9.098;2023-05-11T11:08:27;101447.53;;;22.37;58.00
21109;BME280;10712;52.944;9.098;2023-05-11T11:10:54;101446.06;;;22.52;58.33
21109;BME280;10712;52.944;9.098;2023-05-11T11:13:20;101458.31;;;22.56;58.23
21109;BME280;10712;52.944;9.098;2023-05-11T11:18:29;101451.56;;;22.33;56.15
21109;BME280;10712;52.944;9.098;2023-05-11T11:20:59;101442.97;;;22.37;57.73
21109;BME280;10712;52.944;9.098;2023-05-11T11:23:44;101450.66;;;22.42;57.91
21109;BME280;10712;52.944;9.098;2023-05-11T11:26:16;101451.75;;;22.49;58.16
21109;BME280;10712;52.944;9.098;2023-05-11T11:31:32;101441.56;;;22.24;57.45
21109;BME280;10712;52.944;9.098;2023-05-11T11:39:45;101451.50;;;22.43;57.59
21109;BME280;10712;52.944;9.098;2023-05-11T11:45:26;101450.59;;;22.24;56.93
21109;BME280;10712;52.944;9.098;2023-05-11T11:48:13;101458.66;;;22.44;57.29
21109;BME280;10712;52.944;9.098;2023-05-11T11:50:42;101449.31;;;22.56;57.52
21109;BME280;10712;52.944;9.098;2023-05-11T11:56:05;101461.63;;;22.50;57.17
21109;BME280;10712;52.944;9.098;2023-05-11T12:01:18;101452.13;;;22.73;57.81
21109;BME280;10712;52.944;9.098;2023-05-11T12:03:48;101453.09;;;22.72;57.73
21109;BME280;10712;52.944;9.098;2023-05-11T12:06:20;101459.13;;;22.66;56.66
21109;BME280;10712;52.944;9.098;2023-05-11T12:08:49;101460.00;;;22.67;56.96
21109;BME280;10712;52.944;9.098;2023-05-11T12:11:16;101454.56;;;22.67;57.20
21109;BME280;10712;52.944;9.098;2023-05-11T12:13:42;101458.56;;;22.63;57.57
21109;BME280;10712;52.944;9.098;2023-05-11T12:16:16;101456.81;;;22.71;57.15
21109;BME280;10712;52.944;9.098;2023-05-11T12:18:57;101464.31;;;22.60;56.49
21109;BME280;10712;52.944;9.098;2023-05-11T12:21:27;101447.94;;;22.69;57.17
21109;BME280;10712;52.944;9.098;2023-05-11T12:23:55;101453.38;;;22.69;57.11
21109;BME280;10712;52.944;9.098;2023-05-11T12:26:25;101454.84;;;22.73;57.42
21109;BME280;10712;52.944;9.098;2023-05-11T12:29:09;101442.41;;;22.61;57.13
21109;BME280;10712;52.944;9.098;2023-05-11T12:31:36;101449.66;;;22.70;58.48
21109;BME280;10712;52.944;9.098;2023-05-11T12:34:03;101450.38;;;22.72;58.37
21109;BME280;10712;52.944;9.098;2023-05-11T12:36:29;101450.06;;;22.85;57.84
21109;BME280;10712;52.944;9.098;2023-05-11T12:38:55;101450.19;;;22.84;58.23
21109;BME280;10712;52.944;9.098;2023-05-11T12:41:22;101456.81;;;22.81;57.46
21109;BME280;10712;52.944;9.098;2023-05-11T12:43:53;101450.81;;;22.77;57.49
21109;BME280;10712;52.944;9.098;2023-05-11T12:46:20;101448.09;;;22.77;57.54
21109;BME280;10712;52.944;9.098;2023-05-11T12:48:48;101439.97;;;22.68;57.47
21109;BME280;10712;52.944;9.098;2023-05-11T12:54:33;101445.22;;;22.69;57.80
21109;BME280;10712;52.944;9.098;2023-05-11T12:57:01;101447.59;;;22.55;58.05
21109;BME280;10712;52.944;9.098;2023-05-11T12:59:39;101446.72;;;22.54;58.58
21109;BME280;10712;52.944;9.098;2023-05-11T13:02:20;101443.22;;;22.44;58.64
21109;BME280;10712;52.944;9.098;2023-05-11T13:04:46;101442.63;;;22.50;58.64
21109;BME280;10712;52.944;9.098;2023-05-11T13:07:23;101441.00;;;22.57;58.37
21109;BME280;10712;52.944;9.098;2023-05-11T13:09:59;101443.34;;;22.52;59.25
21109;BME280;10712;52.944;9.098;2023-05-11T13:12:27;101434.88;;;22.55;58.88
21109;BME280;10712;52.944;9.098;2023-05-11T13:15:07;101434.59;;;22.58;58.91
21109;BME280;10712;52.944;9.098;2023-05-11T13:17:36;101429.63;;;22.54;59.35
21109;BME280;10712;52.944;9.098;2023-05-11T13:20:15;101433.47;;;22.51;59.21
21109;BME280;10712;52.944;9.098;2023-05-11T13:22:41;101431.47;;;22.53;59.54
21109;BME280;10712;52.944;9.098;2023-05-11T13:25:07;101429.19;;;22.49;59.16
21109;BME280;10712;52.944;9.098;2023-05-11T13:27:36;101424.59;;;22.49;59.52
21109;BME280;10712;52.944;9.098;2023-05-11T13:30:04;101417.44;;;22.58;58.87
21109;BME280;10712;52.944;9.098;2023-05-11T13:32:30;101416.50;;;22.76;58.83
21109;BME280;10712;52.944;9.098;2023-05-11T13:34:56;101419.06;;;22.68;58.41
21109;BME280;10712;52.944;9.098;2023-05-11T13:37:22;101418.56;;;22.55;58.83
21109;BME280;10712;52.944;9.098;2023-05-11T13:39:48;101415.69;;;22.66;58.35
21109;BME280;10712;52.944;9.098;2023-05-11T13:42:13;101413.97;;;22.65;58.22
21109;BME280;10712;52.944;9.098;2023-05-11T13:44:39;101415.34;;;22.69;58.53
21109;BME280;10712;52.944;9.098;2023-05-11T13:47:05;101417.53;;;22.66;59.03
21109;BME280;10712;52.944;9.098;2023-05-11T13:49:31;101407.09;;;22.61;59.27
21109;BME280;10712;52.944;9.098;2023-05-11T13:51:56;101403.69;;;22.32;58.89
21109;BME280;10712;52.944;9.098;2023-05-11T13:54:22;101403.88;;;22.48;58.53
21109;BME280;10712;52.944;9.098;2023-05-11T13:56:48;101403.72;;;22.59;58.27